KSTL/STL METAR and TAF weather

Enter ICAO airport designator
Station Type Date Time Source
KSTL METAR 2022/12/04 11:51 UTC NOAA

KSTL 041151Z 20005KT 10SM BKN150 OVC250 M01/M09 A3037 RMK AO2 SLP297 T10111089 11006 21022 55008


Station Type Date Time Source
KSTL Decoded METAR 2022/12/04 11:51 UTC NOAA

LAMBERT-ST LOUIS INTERNATIONAL AIRPORT , MO, United States (KSTL) 38-45N 90-22W 171M
Dec 04, 2022 - 06:51 AM EST / 2022.12.04 1151 UTC
Wind: from the SSW (200 degrees) at 6 MPH (5 KT):0
Visibility: 10 mile(s):0
Sky conditions: overcast
Temperature: 30.0 F (-1.1 C)
Windchill: 23 F (-5 C):1
Dew Point: 16.0 F (-8.9 C)
Relative Humidity: 55%
Pressure (altimeter): 30.37 in. Hg (1028 hPa)
Pressure tendency: 0.02 inches (0.8 hPa) lower than three hours ago
ob: KSTL 041151Z 20005KT 10SM BKN150 OVC250 M01/M09 A3037 RMK AO2 SLP297 T10111089 11006 21022 55008
cycle: 12

Station Type Date Time Source
KSTL TAF 2022/12/04 12:22 UTC NOAA

TAF KSTL 041120Z 0412/0518 19005KT P6SM BKN250
FM051300 17007KT P6SM BKN050

Example: see airport list